Data for 07/25/2006

Time Sea-Level Adjusted Pressure Absolute Pressure Temperature Relative Humidity Dew Point   
(mb) (inHg) (mb) (inHg) (C) (F) (%) (C) (F)
00:05 1018 30.06 847 25.01 20.1 68.3 57 11.5 52.7
00:10 1018 30.06 847 25.01 20 68 58 11.5 52.7
00:15 1018 30.06 847 25.01 19.9 67.7 60 11.9 53.4
00:20 1018 30.06 847 25.01 19.9 67.9 56 11.1 51.9
00:25 1018 30.06 847 25.01 20.2 68.3 58 11.7 53.1
00:30 1018 30.06 847 25.01 19.8 67.6 59 11.6 52.8
00:35 1018 30.06 847 25.01 19.7 67.5 60 11.7 53.1
00:40 1018 30.06 847 25.01 19.3 66.8 61 11.6 52.9
00:45 1018 30.06 848 25.04 19.3 66.8 59 11.2 52.2
00:50 1018 30.06 847 25.01 19.4 66.8 59 11.3 52.3
00:55 1018 30.06 848 25.04 19.2 66.6 60 11.3 52.4
01:00 1018 30.06 847 25.01 19.2 66.6 60 11.4 52.5
01:05 1018 30.06 848 25.04 19 66.2 61 11.3 52.3
01:10 1018 30.06 847 25.01 18.9 66.1 60 11 51.9
01:15 1018 30.06 848 25.04 19.2 66.5 58 10.9 51.6
01:20 1018 30.06 848 25.04 19.2 66.6 58 10.9 51.7
01:25 1018 30.06 848 25.04 19.2 66.5 58 10.9 51.6
01:30 1018 30.06 848 25.04 19.2 66.5 58 10.8 51.5
01:35 1018 30.06 848 25.04 19.3 66.7 58 10.9 51.6
01:40 1019 30.09 848 25.04 19.2 66.5 59 11 51.8
01:45 1019 30.09 848 25.04 18.9 66.1 60 11 51.9
01:50 1019 30.09 848 25.04 18.8 65.8 61 11.2 52.1
01:55 1018 30.06 848 25.04 18.7 65.6 61 11.1 52
02:00 1018 30.06 848 25.04 18.7 65.6 60 11 51.8
02:05 1018 30.06 848 25.04 18.6 65.5 61 11 51.7
02:10 1018 30.06 848 25.04 18.4 65.2 62 11.1 51.9
02:15 1018 30.06 848 25.04 18.4 65.1 62 11 51.8
02:20 1019 30.09 848 25.04 18.4 65.1 61 10.9 51.7
02:25 1018 30.06 848 25.04 18.4 65.1 62 11 51.8
02:30 1018 30.06 848 25.04 18.3 64.9 63 11.2 52.2
02:35 1018 30.06 848 25.04 18.2 64.7 64 11.3 52.4
02:40 1018 30.06 848 25.04 17.9 64.2 65 11.3 52.4
02:45 1018 30.06 848 25.04 17.9 64.1 66 11.6 52.8
02:50 1018 30.06 848 25.04 17.5 63.4 68 11.6 53
02:55 1018 30.06 848 25.04 17.2 62.9 69 11.6 52.8
03:00 1018 30.06 848 25.04 17.2 63 68 11.4 52.5
03:05 1019 30.09 848 25.04 17.3 63.1 68 11.4 52.6
03:10 1019 30.09 848 25.04 17.3 63.1 71 12 53.7
03:15 1019 30.09 848 25.04 17.3 63.1 69 11.5 52.7
03:20 1019 30.09 848 25.04 17.1 62.7 70 11.6 52.9
03:25 1019 30.09 848 25.04 16.9 62.4 69 11.3 52.4
03:30 1019 30.09 848 25.04 17.1 62.9 67 11.1 51.9
03:35 1019 30.09 848 25.04 17.1 62.8 69 11.5 52.8
03:40 1019 30.09 848 25.04 16.8 62.3 71 11.5 52.8
03:45 1019 30.09 848 25.04 16.6 61.9 71 11.4 52.4
03:50 1019 30.09 848 25.04 16.5 61.7 71 11.2 52.2
03:55 1018 30.06 848 25.04 16.3 61.4 72 11.3 52.3
04:00 1018 30.06 848 25.04 16.2 61.2 71 10.9 51.7
04:05 1018 30.06 848 25.04 16.1 61.1 70 10.8 51.4
04:10 1018 30.06 848 25.04 16.5 61.7 68 10.7 51.2
04:15 1018 30.06 848 25.04 16.5 61.7 70 11 51.8
04:20 1018 30.06 848 25.04 16.2 61.2 71 11 51.9
04:25 1019 30.09 848 25.04 15.9 60.7 72 11 51.8
04:30 1019 30.09 848 25.04 16 60.8 70 10.6 51
04:35 1019 30.09 848 25.04 16.8 62.3 66 10.6 51
04:40 1019 30.09 848 25.04 17 62.6 66 10.8 51.4
04:45 1019 30.09 848 25.04 16.7 62.1 68 10.8 51.5
04:50 1019 30.09 848 25.04 16.5 61.8 69 10.8 51.5
04:55 1019 30.09 848 25.04 16.4 61.6 69 10.7 51.3
05:00 1019 30.09 848 25.04 16.2 61.2 69 10.7 51.2
05:05 1019 30.09 848 25.04 16.3 61.3 73 11.4 52.5
05:10 1019 30.09 848 25.04 16.2 61.1 70 10.8 51.4
05:15 1019 30.09 848 25.04 16 60.7 71 10.8 51.4
05:20 1019 30.09 848 25.04 15.8 60.4 75 11.4 52.4
05:25 1019 30.09 848 25.04 15.8 60.5 72 10.9 51.6
05:30 1019 30.09 848 25.04 15.7 60.3 71 10.6 51.2
05:35 1019 30.09 848 25.04 15.8 60.5 77 11.7 53.1
05:40 1019 30.09 848 25.04 16 60.7 71 10.7 51.3
05:45 1019 30.09 848 25.04 15.7 60.2 72 10.7 51.3
05:50 1019 30.09 848 25.04 15.5 59.8 73 10.8 51.4
05:55 1019 30.09 848 25.04 15.2 59.4 74 10.7 51.2
06:00 1019 30.09 848 25.04 15.1 59.1 73 10.3 50.6
06:05 1019 30.09 848 25.04 15.3 59.5 74 10.7 51.2
06:10 1019 30.09 848 25.04 15 59.1 75 10.6 51.1
06:15 1019 30.09 848 25.04 14.8 58.7 75 10.5 50.9
06:20 1019 30.09 848 25.04 14.9 58.7 74 10.3 50.6
06:25 1019 30.09 848 25.04 15.3 59.5 73 10.4 50.8
06:30 1019 30.09 848 25.04 15.4 59.7 73 10.6 51
06:35 1019 30.09 848 25.04 15.4 59.7 72 10.4 50.7
06:40 1019 30.09 848 25.04 15.7 60.3 71 10.6 51
06:45 1019 30.09 848 25.04 15.7 60.3 72 10.7 51.2
06:50 1019 30.09 848 25.04 15.4 59.8 73 10.6 51
06:55 1019 30.09 848 25.04 15.3 59.6 74 10.7 51.2
07:00 1019 30.09 848 25.04 15.4 59.8 72 10.5 50.9
07:05 1019 30.09 848 25.04 15.6 60.1 72 10.6 51
07:10 1019 30.09 848 25.04 15.9 60.5 71 10.7 51.2
07:15 1019 30.09 848 25.04 16.2 61.1 69 10.4 50.8
07:20 1019 30.09 848 25.04 16.5 61.6 68 10.7 51.2
07:25 1019 30.09 848 25.04 16.6 61.9 68 10.7 51.3
07:30 1019 30.09 848 25.04 16.5 61.7 68 10.6 51.1
07:35 1019 30.09 848 25.04 16.8 62.2 67 10.8 51.4
07:40 1019 30.09 848 25.04 17.4 63.2 67 11.2 52.1
07:45 1019 30.09 848 25.04 17.6 63.8 64 10.9 51.6
07:50 1019 30.09 848 25.04 17.9 64.1 65 11.3 52.3
07:55 1019 30.09 848 25.04 18 64.5 63 10.9 51.6
08:00 1019 30.09 848 25.04 18.2 64.8 63 11.2 52.2
08:05 1019 30.09 848 25.04 18.4 65 64 11.5 52.6
08:10 1019 30.09 848 25.04 18.5 65.4 63 11.5 52.7
08:15 1019 30.09 848 25.04 18.6 65.5 63 11.5 52.6
08:20 1019 30.09 848 25.04 18.9 66 61 11.4 52.5
08:25 1019 30.09 848 25.04 19.5 67 60 11.6 52.9
08:30 1019 30.09 848 25.04 19.9 67.7 58 11.6 52.8
08:35 1019 30.09 848 25.04 20.1 68.2 57 11.5 52.7
08:40 1019 30.09 848 25.04 20.4 68.7 57 11.8 53.2
08:45 1019 30.09 848 25.04 20.7 69.3 54 11.1 52
08:50 1019 30.09 848 25.04 21.1 70 51 10.8 51.4
08:55 1019 30.09 848 25.04 21.4 70.5 52 11.2 52.2
09:00 1019 30.09 848 25.04 21.6 70.9 50 10.9 51.7
09:05 1019 30.09 848 25.04 22 71.6 47 10.4 50.7
09:10 1019 30.09 848 25.04 22.9 73.1 46 10.9 51.6
09:15 1019 30.09 848 25.04 23.5 74.4 43 10.6 51
09:20 1019 30.09 848 25.04 23.7 74.7 43 10.5 50.9
09:25 1019 30.09 848 25.04 23.7 74.6 42 10.2 50.4
09:30 1019 30.09 848 25.04 23.4 74.2 43 10.3 50.5
09:35 1019 30.09 848 25.04 24 75.2 41 10 50
09:40 1019 30.09 848 25.04 24.7 76.5 39 10.1 50.3
09:45 1019 30.09 848 25.04 24.5 76 40 10.4 50.6
09:50 1019 30.09 848 25.04 25 76.9 39 10.2 50.4
09:55 1019 30.09 848 25.04 25.4 77.7 39 10.6 51.1
10:00 1019 30.09 848 25.04 25.7 78.3 38 10.4 50.7
10:05 1019 30.09 848 25.04 25.9 78.5 35 9.5 49.2
10:10 1019 30.09 848 25.04 26 78.8 37 10.4 50.8
10:15 1019 30.09 848 25.04 25.1 77.1 40 10.7 51.3
10:20 1019 30.09 848 25.04 25.5 77.9 38 10.5 50.9
10:25 1019 30.09 848 25.04 26.1 78.9 38 11 51.7
10:30 1019 30.09 848 25.04 24.9 76.7 40 10.6 51
10:35 1019 30.09 848 25.04 25.2 77.3 39 10.5 50.9
10:40 1019 30.09 848 25.04 26.4 79.4 35 9.9 49.8
10:45 1019 30.09 848 25.04 26.6 79.9 37 10.8 51.5
10:50 1019 30.09 848 25.04 26.7 80.1 36 10.5 51
10:55 1019 30.09 848 25.04 26.3 79.4 37 10.5 51
11:00 1019 30.09 848 25.04 25.8 78.4 36 10 50
11:05 1019 30.09 848 25.04 25.2 77.3 39 10.3 50.6
11:10 1019 30.09 848 25.04 25.7 78.3 36 9.6 49.3
11:15 1019 30.09 848 25.04 26.7 80.1 34 9.6 49.3
11:20 1019 30.09 848 25.04 27 80.7 35 10.4 50.7
11:25 1019 30.09 848 25.04 26.9 80.5 37 11.1 52.1
11:30 1019 30.09 848 25.04 26.5 79.7 35 10.2 50.4
11:35 1019 30.09 848 25.04 27.1 80.8 35 10.4 50.8
11:40 1019 30.09 848 25.04 27.6 81.7 33 10.2 50.3
11:45 1019 30.09 848 25.04 28 82.3 32 10 49.9
11:50 1019 30.09 848 25.04 28.3 82.9 32 10.5 50.8
11:55 1019 30.09 848 25.04 27.6 81.7 33 10.3 50.5
12:00 1019 30.09 848 25.04 27.7 81.8 33 10.1 50.1
12:05 1019 30.09 848 25.04 28.8 83.8 28 8.9 47.9
12:10 1019 30.09 848 25.04 29.4 84.9 28 9.3 48.8
12:15 1018 30.06 848 25.04 29.2 84.5 29 9.6 49.3
12:20 1018 30.06 848 25.04 29.9 85.9 27 9.1 48.3
12:25 1018 30.06 848 25.04 29.7 85.4 27 8.7 47.7
12:30 1018 30.06 847 25.01 30 85.9 25 8.2 46.7
12:35 1018 30.06 847 25.01 30.4 86.7 21 6 42.7
12:40 1018 30.06 847 25.01 29.7 85.4 21 5.5 42
12:45 1018 30.06 847 25.01 30.3 86.6 21 6.1 43
12:50 1018 30.06 847 25.01 30.7 87.3 22 7 44.5
12:55 1018 30.06 847 25.01 30.4 86.7 22 6.8 44.3
13:00 1018 30.06 847 25.01 29.8 85.6 21 5.1 41.2
13:05 1018 30.06 847 25.01 30.7 87.2 19 4.9 40.9
13:10 1018 30.06 847 25.01 30.3 86.6 19 4.6 40.3
13:15 1018 30.06 847 25.01 30.6 87.1 19 4.8 40.6
13:20 1018 30.06 847 25.01 32 89.6 16 3.6 38.4
13:25 1018 30.06 847 25.01 32.3 90.1 15 2.6 36.7
13:30 1017 30.03 847 25.01 32.3 90.1 16 3.7 38.6
13:35 1017 30.03 847 25.01 31.7 89 16 3 37.4
13:40 1017 30.03 847 25.01 31.6 89 16 2.8 37.1
13:45 1017 30.03 847 25.01 32.5 90.4 16 3.5 38.2
13:50 1017 30.03 846 24.98 32.5 90.6 15 3.4 38.2
13:55 1017 30.03 846 24.98 32.7 90.8 15 3.4 38.1
14:00 1017 30.03 846 24.98 32.3 90.2 14 2.3 36.1
14:05 1017 30.03 846 24.98 32.3 90.2 14 2.1 35.9
14:10 1017 30.03 846 24.98 33 91.3 14 2.6 36.7
14:15 1017 30.03 846 24.98 32.6 90.7 14 2.3 36.1
14:20 1017 30.03 846 24.98 32.3 90.1 14 1.9 35.4
14:25 1017 30.03 846 24.98 32.6 90.7 13 0.9 33.6
14:30 1017 30.03 846 24.98 32.3 90.1 14 1.7 35.1
14:35 1017 30.03 846 24.98 32.2 89.9 14 1.6 35
14:40 1017 30.03 846 24.98 32.9 91.3 13 1.7 35.1
14:45 1017 30.03 846 24.98 32.9 91.3 14 1.9 35.4
14:50 1017 30.03 846 24.98 32.1 89.9 14 1.4 34.6
14:55 1017 30.03 846 24.98 31.8 89.2 14 1.5 34.7
15:00 1016 30 846 24.98 31.9 89.3 15 2.2 35.9
15:05 1016 30 846 24.98 31.7 89 15 1.9 35.4
15:10 1016 30 845 24.95 30.9 87.6 16 2.3 36.2
15:15 1016 30 845 24.95 30.9 87.6 16 2.2 36
15:20 1016 30 845 24.95 31.3 88.3 15 2.1 35.8
15:25 1016 30 846 24.98 31.2 88.2 15 1.9 35.5
15:30 1016 30 845 24.95 32.2 90 14 1.8 35.2
15:35 1016 30 845 24.95 32.4 90.3 14 2 35.6
15:40 1016 30 845 24.95 32.5 90.5 14 1.8 35.2
15:45 1016 30 845 24.95 32.4 90.4 14 2.1 35.7
15:50 1016 30 845 24.95 31.2 88.2 15 1.6 34.8
15:55 1016 30 845 24.95 31.5 88.6 15 1.9 35.4
16:00 1016 30 845 24.95 31.7 89.1 17 4.4 39.9
16:05 1016 30 845 24.95 31.9 89.3 15 2.8 37
16:10 1016 30 845 24.95 31.7 89 16 3.2 37.7
16:15 1016 30 845 24.95 31.6 88.9 15 1.9 35.5
16:20 1016 30 845 24.95 31.2 88.2 15 1.9 35.4
16:25 1016 30 845 24.95 30.9 87.5 16 2.6 36.7
16:30 1016 30 845 24.95 30.2 86.3 18 3.6 38.5
16:35 1016 30 845 24.95 29.5 85.1 18 2.9 37.2
16:40 1016 30 845 24.95 29.5 85.2 17 2.2 36
16:45 1016 30 845 24.95 29.8 85.6 18 3.3 37.9
16:50 1016 30 845 24.95 30.1 86.2 17 2.7 36.9
16:55 1016 30 845 24.95 30.1 86.2 19 4.2 39.6
17:00 1016 30 845 24.95 29.5 85.1 18 3.1 37.5
17:05 1016 30 845 24.95 29.1 84.4 20 4.1 39.3
17:10 1016 30 845 24.95 29.2 84.5 23 6 42.8
17:15 1016 30 845 24.95 28.9 84.1 22 5.4 41.7
17:20 1016 30 845 24.95 28.8 83.8 26 7.6 45.6
17:25 1016 30 845 24.95 28.6 83.4 23 5.9 42.6
17:30 1016 30 845 24.95 28.3 82.9 29 8.8 47.9
17:35 1016 30 845 24.95 28.1 82.5 25 6.4 43.6
17:40 1016 30 845 24.95 28.6 83.4 24 6.3 43.4
17:45 1016 30 845 24.95 29.5 85.2 22 5.6 42.1
17:50 1016 30 845 24.95 29.9 85.8 22 6 42.9
17:55 1016 30 845 24.95 29.9 85.7 21 5.7 42.3
18:00 1016 30 845 24.95 29.9 85.9 19 4.3 39.7
18:05 1016 30 845 24.95 29.6 85.2 21 5 41.1
18:10 1016 30 845 24.95 29.3 84.8 23 6.3 43.4
18:15 1016 30 846 24.98 29.2 84.6 21 4.9 40.9
18:20 1017 30.03 846 24.98 28.3 82.9 26 7.5 45.5
18:25 1017 30.03 846 24.98 26.6 79.8 33 9.1 48.5
18:30 1017 30.03 846 24.98 25.6 78.1 33 8.4 47.1
18:35 1017 30.03 846 24.98 25.2 77.4 35 9 48.3
18:40 1017 30.03 847 25.01 24.4 75.8 43 11 51.8
18:45 1018 30.06 847 25.01 23.8 74.8 43 10.7 51.2
18:50 1018 30.06 847 25.01 23.6 74.4 45 11.1 52
18:55 1018 30.06 847 25.01 23.3 73.9 48 12 53.5
19:00 1018 30.06 847 25.01 22.9 73.3 48 11.5 52.7
19:05 1018 30.06 847 25.01 23 73.4 50 12.1 53.7
19:10 1018 30.06 847 25.01 22.9 73.1 50 12.1 53.8
19:15 1018 30.06 847 25.01 22.3 72.2 58 13.8 56.9
19:20 1018 30.06 847 25.01 21.9 71.4 51 11.5 52.7
19:25 1018 30.06 847 25.01 21.6 70.9 58 13.1 55.5
19:30 1017 30.03 847 25.01 21.5 70.6 53 11.6 52.9
19:35 1017 30.03 846 24.98 21.8 71.3 51 11.5 52.7
19:40 1017 30.03 846 24.98 22 71.7 50 11.4 52.5
19:45 1016 30 845 24.95 21.5 70.8 49 10.4 50.7
19:50 1016 30 846 24.98 21.8 71.3 43 8.9 48.1
19:55 1016 30 846 24.98 23 73.4 38 8 46.4
20:00 1017 30.03 846 24.98 22.7 72.8 40 8.6 47.4
20:05 1017 30.03 846 24.98 22.6 72.6 40 8.3 47
20:10 1017 30.03 846 24.98 22.6 72.7 39 8 46.4
20:15 1017 30.03 846 24.98 22.4 72.4 42 9.2 48.6
20:20 1017 30.03 846 24.98 23.2 73.8 34 6.6 43.9
20:25 1017 30.03 846 24.98 23.5 74.3 36 8 46.3
20:30 1017 30.03 846 24.98 23 73.4 39 8.5 47.4
20:35 1017 30.03 846 24.98 22.6 72.6 42 9 48.3
20:40 1017 30.03 846 24.98 22 71.6 45 9.6 49.2
20:45 1016 30 846 24.98 22 71.5 39 7.6 45.7
20:50 1016 30 845 24.95 22.5 72.5 40 8.2 46.8
20:55 1016 30 845 24.95 22.4 72.2 40 8.3 46.9
21:00 1016 30 845 24.95 22.3 72.1 39 7.9 46.3
21:05 1016 30 845 24.95 22.1 71.8 40 8.1 46.6
21:10 1016 30 845 24.95 22.3 72.2 38 7.6 45.7
21:15 1016 30 845 24.95 22.3 72.1 39 7.8 46
21:20 1016 30 845 24.95 22.3 72.1 38 7.3 45.2
21:25 1016 30 845 24.95 22.4 72.4 38 7.5 45.4
21:30 1016 30 845 24.95 22.3 72.2 38 7.5 45.5
21:35 1016 30 845 24.95 22.1 71.9 39 7.7 45.8
21:40 1016 30 845 24.95 22 71.6 41 8.2 46.7
21:45 1016 30 845 24.95 22.1 71.8 39 7.8 46
21:50 1016 30 845 24.95 22.1 71.7 42 8.6 47.4
21:55 1016 30 845 24.95 22.3 72.1 38 7.3 45.2
22:00 1016 30 845 24.95 22.2 71.9 39 7.7 45.9
22:05 1016 30 846 24.98 22.2 71.9 42 8.8 47.9
22:10 1016 30 845 24.95 22.2 72 38 7.3 45.2
22:15 1016 30 845 24.95 22.3 72.2 40 8.3 46.9
22:20 1016 30 845 24.95 22.1 71.8 38 7.3 45.1
22:25 1016 30 845 24.95 21.8 71.2 38 7 44.5
22:30 1016 30 846 24.98 21.8 71.2 40 7.6 45.7
22:35 1016 30 846 24.98 21.4 70.6 41 7.7 45.9
22:40 1016 30 846 24.98 21 69.7 43 8.2 46.7
22:45 1016 30 845 24.95 20.3 68.5 45 8.3 46.9
22:50 1016 30 845 24.95 20 67.9 46 8 46.5
22:55 1016 30 846 24.98 19.9 67.8 46 7.9 46.2
23:00 1016 30 845 24.95 20 68 47 8.4 47
23:05 1016 30 845 24.95 20.2 68.3 46 8.2 46.8
23:10 1016 30 845 24.95 19.9 67.7 48 8.7 47.7
23:15 1016 30 845 24.95 19.5 67 48 8.4 47.1
23:20 1016 30 845 24.95 19.2 66.6 49 8.5 47.2
23:25 1016 30 845 24.95 19.2 66.5 53 9.4 49
23:30 1016 30 845 24.95 19.5 67 45 7.5 45.5
23:35 1016 30 845 24.95 19.6 67.3 51 9.2 48.6
23:40 1016 30 845 24.95 19.3 66.7 48 8.1 46.6
23:45 1016 30 845 24.95 19 66.1 51 8.7 47.7
23:50 1016 30 845 24.95 18.9 65.9 57 10.4 50.6
23:55 1016 30 845 24.95 18.4 65.1 52 8.4 47.1
24:00 1016 30 845 24.95 17.7 63.8 57 9.1 48.3